KLM980 EGLC-EHAM
Flight info
| Callsign | KLM980 |
|---|---|
| Flight time | N/A |
| Altitude | 21000 |
| Route | ODUKU M84 CLN P44 RATLO M197 REDFA |
| Aircraft | E75L/M-SDE3GILORVW/S |
Departure
| Time | N/A |
|---|---|
| Airport | London City Airport (EGLC) |
Arrival
| Time | 2026-05-07 13:53 |
|---|---|
| Airport | Amsterdam Airport Schiphol (EHAM) |
| Time | Latitude | Longitude | Altitude | Speed | Heading |
|---|---|---|---|---|---|
| 2026-05-07 13:35 | 52.28861 | 2.97147 | 21023 ft | 410 kts | 60° |
| 2026-05-07 13:35 | 52.30206 | 3.00913 | 21021 ft | 411 kts | 60° |
| 2026-05-07 13:36 | 52.31650 | 3.04966 | 21017 ft | 408 kts | 60° |
| 2026-05-07 13:36 | 52.33040 | 3.08877 | 20967 ft | 387 kts | 60° |
| 2026-05-07 13:36 | 52.34342 | 3.12547 | 20979 ft | 374 kts | 60° |
| 2026-05-07 13:36 | 52.35651 | 3.16240 | 21084 ft | 380 kts | 60° |
| 2026-05-07 13:37 | 52.36980 | 3.19996 | 20357 ft | 388 kts | 60° |
| 2026-05-07 13:37 | 52.38347 | 3.23854 | 19246 ft | 395 kts | 60° |
| 2026-05-07 13:37 | 52.39733 | 3.27768 | 18132 ft | 402 kts | 60° |
| 2026-05-07 13:37 | 52.41110 | 3.31663 | 17685 ft | 387 kts | 60° |
| 2026-05-07 13:38 | 52.42435 | 3.35429 | 17174 ft | 376 kts | 60° |
| 2026-05-07 13:38 | 52.43723 | 3.39100 | 16651 ft | 367 kts | 60° |
| 2026-05-07 13:38 | 52.44899 | 3.42746 | 16128 ft | 358 kts | 69° |
| 2026-05-07 13:38 | 52.45614 | 3.46603 | 15702 ft | 349 kts | 76° |
| 2026-05-07 13:39 | 52.46139 | 3.50468 | 15207 ft | 344 kts | 78° |
| 2026-05-07 13:39 | 52.46620 | 3.54256 | 14809 ft | 338 kts | 78° |
| 2026-05-07 13:39 | 52.47123 | 3.58028 | 14329 ft | 335 kts | 77° |
| 2026-05-07 13:39 | 52.47639 | 3.61705 | 13915 ft | 328 kts | 77° |
| 2026-05-07 13:40 | 52.48153 | 3.65326 | 13465 ft | 322 kts | 77° |
| 2026-05-07 13:40 | 52.48655 | 3.68858 | 13054 ft | 316 kts | 77° |
| 2026-05-07 13:40 | 52.49149 | 3.72350 | 12648 ft | 310 kts | 77° |
| 2026-05-07 13:40 | 52.49634 | 3.75777 | 12236 ft | 306 kts | 77° |
| 2026-05-07 13:41 | 52.50109 | 3.79152 | 11840 ft | 302 kts | 77° |
| 2026-05-07 13:41 | 52.50577 | 3.82488 | 11447 ft | 298 kts | 77° |
| 2026-05-07 13:41 | 52.51039 | 3.85779 | 11055 ft | 295 kts | 77° |
| 2026-05-07 13:41 | 52.51497 | 3.89050 | 10667 ft | 292 kts | 77° |
| 2026-05-07 13:42 | 52.51817 | 3.92311 | 10312 ft | 288 kts | 92° |
| 2026-05-07 13:42 | 52.51307 | 3.95412 | 10173 ft | 281 kts | 121° |
| 2026-05-07 13:42 | 52.50108 | 3.97943 | 10142 ft | 282 kts | 132° |
| 2026-05-07 13:42 | 52.48785 | 4.00426 | 9795 ft | 291 kts | 132° |
| 2026-05-07 13:43 | 52.47485 | 4.02893 | 9810 ft | 284 kts | 131° |
| 2026-05-07 13:43 | 52.46171 | 4.05374 | 9369 ft | 295 kts | 132° |
| 2026-05-07 13:43 | 52.44803 | 4.07958 | 8541 ft | 304 kts | 132° |
| 2026-05-07 13:43 | 52.43413 | 4.10605 | 7609 ft | 305 kts | 131° |
| 2026-05-07 13:44 | 52.42031 | 4.13210 | 6534 ft | 301 kts | 131° |
| 2026-05-07 13:44 | 52.40695 | 4.15775 | 5906 ft | 283 kts | 131° |
| 2026-05-07 13:44 | 52.39465 | 4.18113 | 5833 ft | 264 kts | 131° |
| 2026-05-07 13:44 | 52.38278 | 4.20358 | 5786 ft | 266 kts | 131° |
| 2026-05-07 13:45 | 52.37043 | 4.22692 | 5790 ft | 269 kts | 131° |
| 2026-05-07 13:45 | 52.35815 | 4.25016 | 5686 ft | 269 kts | 131° |
| 2026-05-07 13:45 | 52.34597 | 4.27276 | 5573 ft | 266 kts | 131° |
| 2026-05-07 13:45 | 52.33367 | 4.29540 | 5448 ft | 267 kts | 131° |
| 2026-05-07 13:46 | 52.32134 | 4.31798 | 5323 ft | 267 kts | 131° |
| 2026-05-07 13:46 | 52.30900 | 4.34055 | 5200 ft | 266 kts | 131° |
| 2026-05-07 13:46 | 52.29645 | 4.36335 | 4521 ft | 268 kts | 131° |
| 2026-05-07 13:46 | 52.28408 | 4.38557 | 3872 ft | 261 kts | 132° |
| 2026-05-07 13:47 | 52.27200 | 4.40703 | 3388 ft | 249 kts | 131° |
| 2026-05-07 13:47 | 52.26049 | 4.42728 | 3159 ft | 239 kts | 132° |
| 2026-05-07 13:47 | 52.24904 | 4.44679 | 2868 ft | 238 kts | 132° |
| 2026-05-07 13:47 | 52.23837 | 4.46501 | 2626 ft | 231 kts | 132° |
| 2026-05-07 13:48 | 52.22747 | 4.48357 | 2406 ft | 223 kts | 129° |
| 2026-05-07 13:48 | 52.22091 | 4.50428 | 2121 ft | 220 kts | 97° |
| 2026-05-07 13:48 | 52.21989 | 4.52808 | 2018 ft | 211 kts | 91° |
| 2026-05-07 13:48 | 52.21950 | 4.55147 | 1916 ft | 203 kts | 81° |
| 2026-05-07 13:49 | 52.22487 | 4.57146 | 2056 ft | 196 kts | 53° |
| 2026-05-07 13:49 | 52.23107 | 4.58492 | 2067 ft | 192 kts | 54° |
| 2026-05-07 13:49 | 52.23798 | 4.60352 | 1934 ft | 187 kts | 60° |
| 2026-05-07 13:49 | 52.24420 | 4.62093 | 1642 ft | 185 kts | 56° |
| 2026-05-07 13:50 | 52.25083 | 4.63739 | 1457 ft | 162 kts | 55° |
| 2026-05-07 13:50 | 52.25566 | 4.64990 | 1269 ft | 145 kts | 55° |
| 2026-05-07 13:50 | 52.26087 | 4.66361 | 1063 ft | 134 kts | 55° |
| 2026-05-07 13:50 | 52.26564 | 4.67597 | 884 ft | 125 kts | 55° |
| 2026-05-07 13:51 | 52.27038 | 4.68830 | 735 ft | 130 kts | 56° |
| 2026-05-07 13:51 | 52.27501 | 4.70050 | 578 ft | 127 kts | 57° |
| 2026-05-07 13:51 | 52.27963 | 4.71268 | 407 ft | 126 kts | 56° |
| 2026-05-07 13:51 | 52.28436 | 4.72489 | 211 ft | 128 kts | 57° |
| 2026-05-07 13:52 | 52.28594 | 4.72902 | 152 ft | 127 kts | 57° |
| 2026-05-07 13:52 | 52.28948 | 4.73814 | 34 ft | 125 kts | 57° |
| 2026-05-07 13:52 | 52.29316 | 4.74776 | -3 ft | 101 kts | 58° |
| 2026-05-07 13:52 | 52.29587 | 4.75482 | -4 ft | 59 kts | 58° |
| 2026-05-07 13:53 | 52.29739 | 4.75769 | -5 ft | 44 kts | 28° |
| 2026-05-07 13:53 | 52.29886 | 4.75890 | -4 ft | 21 kts | 29° |
| 2026-05-07 13:53 | 52.29994 | 4.76002 | -3 ft | 20 kts | 47° |
| 2026-05-07 13:53 | 52.30056 | 4.76154 | -3 ft | 19 kts | 59° |
| 2026-05-07 13:54 | 52.30128 | 4.76345 | -3 ft | 22 kts | 58° |
| 2026-05-07 13:54 | 52.30215 | 4.76571 | -3 ft | 24 kts | 59° |
| 2026-05-07 13:54 | 52.30303 | 4.76802 | -3 ft | 24 kts | 57° |
| 2026-05-07 13:54 | 52.30396 | 4.77036 | -4 ft | 24 kts | 58° |
| 2026-05-07 13:55 | 52.30473 | 4.77161 | -3 ft | 10 kts | 334° |
| 2026-05-07 13:55 | 52.30514 | 4.77124 | -3 ft | 13 kts | 332° |
| 2026-05-07 13:55 | 52.30608 | 4.77027 | -3 ft | 11 kts | 329° |
| 2026-05-07 13:55 | 52.30651 | 4.76963 | -3 ft | 7 kts | 311° |
| 2026-05-07 13:56 | 52.30684 | 4.76930 | -3 ft | 5 kts | 8° |
| 2026-05-07 13:56 | 52.30701 | 4.76944 | -3 ft | 1 kts | 36° |
| 2026-05-07 13:56 | 52.30704 | 4.76947 | -3 ft | 1 kts | 33° |
| 2026-05-07 13:56 | 52.30708 | 4.76951 | -3 ft | 1 kts | 33° |
| 2026-05-07 13:57 | 52.30710 | 4.76953 | -3 ft | 1 kts | 33° |
| 2026-05-07 13:57 | 52.30711 | 4.76955 | -3 ft | 0 kts | 33° |
| 2026-05-07 14:02 | 52.30712 | 4.76955 | -3 ft | 0 kts | 33° |